createdAt,value
2023-03-25T00:00:32.924Z,15.90
2023-03-25T00:03:00.703Z,8.77
2023-03-25T00:05:28.222Z,17.33
2023-03-25T00:07:55.636Z,11.95
2023-03-25T00:10:23.184Z,22.05
2023-03-25T00:12:51.748Z,31.48
2023-03-25T00:15:19.728Z,11.23
2023-03-25T00:17:47.356Z,29.40
2023-03-25T00:20:14.969Z,11.35
2023-03-25T00:22:44.283Z,13.07
2023-03-25T00:25:19.124Z,15.38
2023-03-25T00:27:49.102Z,7.90
2023-03-25T00:30:17.918Z,16.38
2023-03-25T00:32:49.947Z,14.27
2023-03-25T00:35:24.316Z,12.02
2023-03-25T00:37:57.912Z,19.05
2023-03-25T00:40:29.638Z,9.00
2023-03-25T00:43:00.023Z,16.92
2023-03-25T00:45:28.524Z,11.43
2023-03-25T00:47:56.378Z,11.20
2023-03-25T00:50:25.860Z,26.83
2023-03-25T00:52:54.532Z,19.23
2023-03-25T00:55:22.331Z,10.82
2023-03-25T00:57:49.587Z,20.15
2023-03-25T01:00:18.766Z,15.85
2023-03-25T01:02:46.311Z,17.45
2023-03-25T01:05:13.719Z,11.50
2023-03-25T01:07:42.046Z,13.88
2023-03-25T01:10:09.994Z,8.15
2023-03-25T01:12:37.719Z,14.38
2023-03-25T01:15:05.871Z,9.95
2023-03-25T01:17:33.310Z,19.52
2023-03-25T01:20:00.635Z,8.20
2023-03-25T01:22:28.072Z,10.98
2023-03-25T01:24:55.433Z,7.00
2023-03-25T01:27:24.687Z,24.80
2023-03-25T01:29:54.548Z,14.73
2023-03-25T01:32:21.907Z,23.98
2023-03-25T01:34:49.648Z,13.52
2023-03-25T01:37:18.179Z,10.90
2023-03-25T01:39:45.772Z,18.20
2023-03-25T01:42:13.121Z,11.80
2023-03-25T01:44:41.127Z,11.75
2023-03-25T01:47:08.929Z,22.52
2023-03-25T01:49:44.235Z,16.10
2023-03-25T01:52:18.126Z,15.95
2023-03-25T01:54:47.311Z,8.32
2023-03-25T01:57:20.586Z,17.30
2023-03-25T01:59:49.601Z,17.13
2023-03-25T02:02:18.771Z,15.05
2023-03-25T02:04:58.774Z,9.50
2023-03-25T02:07:34.331Z,11.88
2023-03-25T02:10:06.703Z,13.90
2023-03-25T02:12:34.013Z,15.02
2023-03-25T02:15:06.424Z,12.10
2023-03-25T02:18:02.768Z,14.50
2023-03-25T02:21:02.958Z,13.07
2023-03-25T02:23:58.395Z,5.70
2023-03-25T02:26:45.186Z,11.43
2023-03-25T02:29:24.150Z,9.85
2023-03-25T02:32:29.038Z,16.30
2023-03-25T02:35:11.536Z,14.68
2023-03-25T02:38:06.303Z,17.10
2023-03-25T02:41:01.549Z,6.43
2023-03-25T02:43:39.977Z,15.43
2023-03-25T02:46:15.674Z,13.93
2023-03-25T02:48:51.649Z,24.05
2023-03-25T02:51:27.323Z,16.10
2023-03-25T02:53:58.469Z,30.35
2023-03-25T02:56:32.787Z,15.77
2023-03-25T02:59:03.829Z,17.83
2023-03-25T03:01:35.155Z,20.63
2023-03-25T03:04:12.919Z,12.30
2023-03-25T03:06:43.103Z,5.00
2023-03-25T03:09:25.650Z,19.30
2023-03-25T03:12:12.741Z,9.80
2023-03-25T03:15:07.448Z,15.02
2023-03-25T03:17:56.213Z,14.57
2023-03-25T03:20:44.105Z,12.18
2023-03-25T03:25:53.488Z,9.15
2023-03-25T03:28:55.402Z,24.17
2023-03-25T03:31:48.272Z,16.20
2023-03-25T03:34:48.376Z,10.50
2023-03-25T03:37:20.892Z,5.28
2023-03-25T03:39:49.689Z,13.90
2023-03-25T03:42:31.031Z,9.38
2023-03-25T03:45:07.471Z,17.00
2023-03-25T03:47:41.875Z,19.92
2023-03-25T03:50:14.497Z,10.27
2023-03-25T03:52:47.348Z,12.70
2023-03-25T03:55:21.209Z,21.00
2023-03-25T03:57:58.007Z,17.10
2023-03-25T04:00:43.119Z,8.82
2023-03-25T04:03:24.563Z,13.55
2023-03-25T04:06:08.022Z,8.68
2023-03-25T04:08:47.014Z,25.88
2023-03-25T04:11:22.497Z,6.82
2023-03-25T04:13:53.927Z,11.05
2023-03-25T04:16:23.250Z,16.40
2023-03-25T04:18:53.507Z,26.95
2023-03-25T04:21:21.902Z,21.60
2023-03-25T04:23:49.911Z,10.25
2023-03-25T04:26:17.714Z,16.23
2023-03-25T04:28:45.314Z,13.52
2023-03-25T04:31:15.747Z,15.50
2023-03-25T04:33:48.642Z,13.57
2023-03-25T04:36:16.695Z,10.57
2023-03-25T04:38:47.148Z,28.38
2023-03-25T04:41:15.104Z,18.95
2023-03-25T04:43:45.120Z,14.05
2023-03-25T04:46:15.170Z,12.05
2023-03-25T04:48:45.118Z,10.00
2023-03-25T04:51:14.077Z,11.93
2023-03-25T04:53:42.957Z,21.70
2023-03-25T04:56:16.290Z,11.32
2023-03-25T04:58:44.781Z,20.15
2023-03-25T05:01:30.475Z,10.68
2023-03-25T05:04:06.889Z,21.05
2023-03-25T05:06:38.418Z,12.63
2023-03-25T05:09:07.968Z,13.00
2023-03-25T05:11:41.954Z,16.23
2023-03-25T05:14:11.278Z,9.75
2023-03-25T05:16:39.398Z,9.30
2023-03-25T05:19:07.789Z,28.38
2023-03-25T05:21:36.382Z,14.60
2023-03-25T05:24:08.278Z,15.05
2023-03-25T05:26:36.805Z,31.02
2023-03-25T05:29:06.333Z,18.83
2023-03-25T05:31:34.159Z,28.65
2023-03-25T05:34:02.189Z,17.48
2023-03-25T05:36:29.683Z,15.35
2023-03-25T05:38:58.292Z,28.95
2023-03-25T05:41:38.761Z,17.65
2023-03-25T05:44:08.197Z,17.20
2023-03-25T05:46:36.011Z,20.30
2023-03-25T05:49:04.132Z,16.52
2023-03-25T05:51:37.791Z,23.02
2023-03-25T05:54:11.845Z,10.20
2023-03-25T05:56:40.118Z,22.90
2023-03-25T05:59:08.335Z,17.55
2023-03-25T06:01:39.357Z,23.00
2023-03-25T06:04:10.158Z,11.15
2023-03-25T06:06:38.032Z,23.67
2023-03-25T06:09:06.178Z,18.70
2023-03-25T06:11:40.239Z,23.95
2023-03-25T06:14:08.178Z,19.20
2023-03-25T06:16:36.116Z,9.05
2023-03-25T06:19:04.024Z,17.50
2023-03-25T06:21:34.976Z,26.45
2023-03-25T06:24:02.921Z,28.75
2023-03-25T06:26:32.672Z,14.52
2023-03-25T06:29:02.635Z,16.67
2023-03-25T06:31:34.242Z,14.75
2023-03-25T06:34:02.480Z,17.90
2023-03-25T06:36:29.958Z,7.80
2023-03-25T06:38:58.459Z,18.50
2023-03-25T06:41:26.118Z,18.55
2023-03-25T06:44:13.776Z,9.57
2023-03-25T06:46:44.230Z,15.93
2023-03-25T06:49:16.133Z,28.40
2023-03-25T06:51:43.661Z,10.82
2023-03-25T06:54:11.054Z,15.48
2023-03-25T06:56:38.852Z,21.30
2023-03-25T06:59:06.418Z,20.90
2023-03-25T07:01:33.720Z,17.17
2023-03-25T07:04:01.153Z,34.92
2023-03-25T07:06:28.498Z,23.85
2023-03-25T07:08:55.878Z,12.15
2023-03-25T07:11:27.394Z,19.33
2023-03-25T07:13:55.313Z,19.15
2023-03-25T07:16:23.740Z,14.30
2023-03-25T07:18:51.594Z,6.65
2023-03-25T07:21:19.252Z,6.40
2023-03-25T07:23:46.638Z,14.65
2023-03-25T07:26:13.906Z,6.57
2023-03-25T07:28:41.604Z,19.60
2023-03-25T07:31:12.938Z,12.38
2023-03-25T07:33:41.582Z,19.55
2023-03-25T07:36:11.890Z,26.27
2023-03-25T07:38:39.279Z,23.55
2023-03-25T07:41:08.157Z,10.05
2023-03-25T07:43:35.713Z,22.55
2023-03-25T07:46:22.866Z,13.88
2023-03-25T07:48:51.556Z,18.08
2023-03-25T07:51:18.891Z,17.65
2023-03-25T07:53:46.856Z,17.13
2023-03-25T07:56:15.540Z,30.42
2023-03-25T07:58:44.442Z,26.65
2023-03-25T08:01:12.673Z,31.80
2023-03-25T08:03:41.349Z,12.10
2023-03-25T08:06:09.379Z,12.13
2023-03-25T08:08:37.036Z,13.45
2023-03-25T08:11:04.885Z,24.80
2023-03-25T08:13:32.774Z,11.07
2023-03-25T08:16:00.356Z,10.48
2023-03-25T08:18:27.786Z,13.02
2023-03-25T08:20:55.755Z,18.75
2023-03-25T08:23:23.530Z,31.65
2023-03-25T08:25:51.843Z,26.80
2023-03-25T08:28:25.890Z,18.30
2023-03-25T08:30:55.388Z,15.85
2023-03-25T08:33:27.335Z,11.40
2023-03-25T08:36:01.681Z,12.63
2023-03-25T08:38:34.654Z,14.25
2023-03-25T08:41:03.471Z,10.88
2023-03-25T08:43:31.041Z,13.55
2023-03-25T08:45:58.625Z,21.83
2023-03-25T08:48:28.631Z,17.55
2023-03-25T08:50:56.427Z,22.20
2023-03-25T08:53:24.152Z,7.40
2023-03-25T08:56:20.457Z,21.42
2023-03-25T08:58:48.130Z,27.13
2023-03-25T09:01:15.956Z,17.17
2023-03-25T09:03:46.816Z,18.35
2023-03-25T09:06:14.618Z,22.15
2023-03-25T09:08:42.191Z,24.13
2023-03-25T09:11:09.720Z,18.60
2023-03-25T09:13:37.112Z,27.55
2023-03-25T09:16:06.660Z,18.63
2023-03-25T09:18:41.932Z,20.00
2023-03-25T09:21:12.163Z,20.85
2023-03-25T09:23:42.257Z,20.75
2023-03-25T09:26:09.859Z,20.48
2023-03-25T09:28:39.582Z,13.27
2023-03-25T09:31:11.635Z,20.45
2023-03-25T09:33:47.632Z,17.92
2023-03-25T09:36:21.631Z,20.90
2023-03-25T09:38:54.083Z,21.23
2023-03-25T09:41:42.528Z,8.85
2023-03-25T09:44:12.857Z,25.38
2023-03-25T09:46:44.403Z,16.95
2023-03-25T09:49:19.830Z,15.82
2023-03-25T09:51:51.034Z,20.00
2023-03-25T09:54:30.592Z,12.85
2023-03-25T09:57:03.092Z,10.65
2023-03-25T10:00:17.458Z,22.40
2023-03-25T10:02:54.373Z,18.02
2023-03-25T10:05:45.278Z,15.52
2023-03-25T10:08:57.425Z,18.25
2023-03-25T10:11:42.688Z,9.70
2023-03-25T10:14:43.483Z,18.73
2023-03-25T10:18:15.507Z,14.57
2023-03-25T10:21:38.974Z,15.70
2023-03-25T10:24:46.565Z,13.38
2023-03-25T10:27:46.143Z,12.10
2023-03-25T10:30:45.790Z,20.67
2023-03-25T10:42:26.940Z,11.73
2023-03-25T10:43:39.171Z,14.73
2023-03-25T10:46:51.479Z,8.75
2023-03-25T10:52:15.930Z,16.05
2023-03-25T10:55:06.643Z,10.55
2023-03-25T10:57:34.732Z,11.75
2023-03-25T11:00:47.713Z,13.63
2023-03-25T11:08:24.605Z,12.15
2023-03-25T11:11:22.340Z,9.10
2023-03-25T11:14:50.605Z,16.30
2023-03-25T11:17:21.797Z,5.15
2023-03-25T11:20:37.964Z,12.05
2023-03-25T11:26:54.359Z,10.05
2023-03-25T11:29:33.241Z,1.23
2023-03-25T11:32:25.749Z,12.93
2023-03-25T11:34:58.741Z,10.95
2023-03-25T11:37:38.647Z,15.65
2023-03-25T11:40:18.752Z,8.40
2023-03-25T11:43:22.041Z,17.13
2023-03-25T11:45:54.218Z,14.55
2023-03-25T11:54:30.422Z,22.20
2023-03-25T11:57:40.725Z,22.40
2023-03-25T12:03:31.425Z,6.38
2023-03-25T12:06:05.488Z,5.80
2023-03-25T12:08:52.245Z,16.33
2023-03-25T12:12:04.019Z,9.23
2023-03-25T12:15:24.646Z,11.23
2023-03-25T12:18:02.047Z,10.95
2023-03-25T12:21:02.588Z,14.38
2023-03-25T12:23:41.371Z,15.35
2023-03-25T12:26:34.610Z,3.42
2023-03-25T12:29:20.868Z,9.75
2023-03-25T12:32:34.720Z,19.70
2023-03-25T12:35:28.445Z,8.40
2023-03-25T12:38:14.980Z,11.13
2023-03-25T12:40:45.876Z,10.85
2023-03-25T12:43:46.189Z,9.63
2023-03-25T12:47:00.618Z,11.43
2023-03-25T12:49:56.063Z,13.30
2023-03-25T12:52:29.273Z,7.70
2023-03-25T12:55:02.606Z,11.82
2023-03-25T12:58:05.304Z,10.82
2023-03-25T13:00:51.390Z,10.07
2023-03-25T13:03:25.150Z,7.22
2023-03-25T13:06:09.596Z,14.20
2023-03-25T13:08:48.180Z,13.25
2023-03-25T13:11:21.280Z,10.40
2023-03-25T13:13:51.428Z,10.20
2023-03-25T13:16:23.749Z,14.57
2023-03-25T13:19:15.318Z,10.65
2023-03-25T13:21:50.660Z,10.52
2023-03-25T13:24:38.743Z,12.18
2023-03-25T13:27:08.559Z,14.55
2023-03-25T13:29:47.578Z,8.27
2023-03-25T13:32:29.350Z,9.02
2023-03-25T13:35:09.157Z,10.48
2023-03-25T13:37:45.109Z,2.78
2023-03-25T13:40:31.771Z,6.13
2023-03-25T13:43:15.718Z,11.35
2023-03-25T13:45:56.207Z,7.68
2023-03-25T13:48:30.465Z,8.07
2023-03-25T13:51:03.354Z,8.40
2023-03-25T13:53:57.741Z,7.72
2023-03-25T13:56:31.754Z,5.95
2023-03-25T13:59:11.243Z,7.68
2023-03-25T14:01:44.123Z,5.97
2023-03-25T14:04:51.300Z,7.05
2023-03-25T14:07:34.244Z,9.65
2023-03-25T14:10:13.542Z,5.72
2023-03-25T14:12:52.507Z,13.45
2023-03-25T14:15:24.906Z,14.43
2023-03-25T14:17:54.384Z,10.63
2023-03-25T14:20:27.155Z,6.28
2023-03-25T14:23:01.970Z,5.65
2023-03-25T14:25:45.127Z,8.18
2023-03-25T14:28:19.661Z,7.57
2023-03-25T14:31:10.884Z,11.52
2023-03-25T14:34:12.703Z,5.57
2023-03-25T14:36:40.165Z,6.47
2023-03-25T14:39:29.616Z,6.13
2023-03-25T14:42:09.852Z,9.95
2023-03-25T14:44:41.677Z,11.88
2023-03-25T14:47:21.086Z,3.95
2023-03-25T14:50:16.692Z,15.60
2023-03-25T14:52:46.110Z,16.85
2023-03-25T14:55:47.326Z,13.10
2023-03-25T14:58:29.124Z,6.90
2023-03-25T15:01:04.954Z,11.85
2023-03-25T15:03:44.028Z,4.28
2023-03-25T15:06:28.749Z,7.63
2023-03-25T15:08:59.933Z,7.55
2023-03-25T15:11:36.394Z,7.07
2023-03-25T15:14:07.839Z,10.43
2023-03-25T15:16:47.594Z,7.95
2023-03-25T15:19:19.865Z,4.63
2023-03-25T15:22:08.414Z,3.17
2023-03-25T15:24:43.133Z,2.67
2023-03-25T15:27:28.103Z,3.80
2023-03-25T15:30:29.294Z,3.45
2023-03-25T15:33:33.981Z,5.82
2023-03-25T15:36:30.119Z,8.25
2023-03-25T15:39:16.656Z,7.15
2023-03-25T15:42:02.646Z,5.22
2023-03-25T15:44:45.116Z,3.10
2023-03-25T15:47:42.052Z,5.93
2023-03-25T15:50:21.464Z,5.22
2023-03-25T15:53:41.444Z,5.63
2023-03-25T15:56:28.804Z,4.53
2023-03-25T15:59:14.862Z,4.22
2023-03-25T16:01:49.447Z,5.57
2023-03-25T16:04:46.279Z,2.22
2023-03-25T16:07:16.808Z,2.40
2023-03-25T16:09:50.468Z,7.15
2023-03-25T16:12:24.324Z,12.40
2023-03-25T16:14:56.325Z,12.68
2023-03-25T16:17:33.513Z,5.70
2023-03-25T16:22:43.068Z,7.45
2023-03-25T16:25:21.555Z,6.85
2023-03-25T16:28:12.733Z,3.70
2023-03-25T16:30:48.828Z,8.40
2023-03-25T16:33:21.756Z,4.75
2023-03-25T16:36:32.939Z,6.53
2023-03-25T16:39:01.275Z,10.32
2023-03-25T16:41:30.824Z,19.05
2023-03-25T16:44:09.273Z,8.15
2023-03-25T16:56:50.070Z,10.13
2023-03-25T16:59:27.030Z,4.07
2023-03-25T17:02:02.750Z,12.82
2023-03-25T17:04:42.562Z,14.63
2023-03-25T17:07:25.635Z,11.68
2023-03-25T17:10:08.134Z,10.63
2023-03-25T17:13:34.491Z,4.18
2023-03-25T17:16:05.441Z,19.73
2023-03-25T17:18:41.923Z,7.03
2023-03-25T17:21:15.385Z,19.45
2023-03-25T17:23:52.006Z,21.50
2023-03-25T17:26:28.196Z,13.90
2023-03-25T17:29:38.254Z,12.30
2023-03-25T17:32:22.881Z,12.13
2023-03-25T17:35:46.912Z,13.95
2023-03-25T17:38:26.573Z,15.25
2023-03-25T17:41:05.243Z,16.70
2023-03-25T17:43:37.107Z,18.80
2023-03-25T17:46:09.762Z,24.60
2023-03-25T17:48:41.147Z,22.13
2023-03-25T17:51:13.071Z,13.95
2023-03-25T17:53:40.421Z,22.00
2023-03-25T17:56:10.080Z,18.75
2023-03-25T17:58:37.578Z,21.30
2023-03-25T18:01:05.509Z,27.15
2023-03-25T18:03:35.255Z,25.23
2023-03-25T18:06:02.762Z,24.83
2023-03-25T18:08:30.447Z,26.23
2023-03-25T18:10:59.053Z,26.08
2023-03-25T18:13:27.971Z,34.67
2023-03-25T18:16:00.347Z,21.23
2023-03-25T18:18:32.535Z,20.58
2023-03-25T18:21:03.863Z,29.77
2023-03-25T18:23:32.078Z,18.35
2023-03-25T18:26:00.459Z,18.65
2023-03-25T18:28:28.349Z,25.17
2023-03-25T18:31:00.255Z,14.52
2023-03-25T18:33:28.759Z,20.38
2023-03-25T18:35:59.636Z,37.03
2023-03-25T18:38:31.105Z,26.80
2023-03-25T18:40:58.777Z,26.98
2023-03-25T18:43:26.395Z,31.48
2023-03-25T18:45:54.275Z,24.75
2023-03-25T18:48:22.812Z,31.65
2023-03-25T18:51:00.848Z,35.15
2023-03-25T18:53:30.014Z,54.03
2023-03-25T18:56:00.997Z,43.88
2023-03-25T18:58:31.315Z,37.95
2023-03-25T19:01:07.855Z,38.40
2023-03-25T19:03:41.486Z,47.65
2023-03-25T19:06:12.026Z,61.08
2023-03-25T19:08:41.805Z,22.35
2023-03-25T19:11:21.080Z,31.67
2023-03-25T19:13:51.450Z,23.80
2023-03-25T19:16:20.351Z,35.53
2023-03-25T19:18:51.490Z,24.88
2023-03-25T19:21:21.646Z,28.00
2023-03-25T19:23:52.629Z,28.25
2023-03-25T19:26:28.905Z,36.22
2023-03-25T19:28:56.390Z,26.48
2023-03-25T19:31:25.453Z,27.52
2023-03-25T19:33:53.064Z,37.42
2023-03-25T19:36:23.272Z,24.65
2023-03-25T19:38:53.253Z,28.33
2023-03-25T19:41:20.937Z,28.92
2023-03-25T19:43:48.376Z,31.45
2023-03-25T19:46:16.893Z,29.08
2023-03-25T19:48:44.174Z,20.83
2023-03-25T19:51:11.620Z,13.60
2023-03-25T19:53:39.674Z,33.83
2023-03-25T19:56:07.959Z,24.70
2023-03-25T19:58:37.953Z,31.65
2023-03-25T20:01:06.596Z,24.05
2023-03-25T20:03:36.364Z,18.88
2023-03-25T20:06:06.486Z,15.32
2023-03-25T20:08:36.421Z,23.42
2023-03-25T20:11:14.000Z,16.40
2023-03-25T20:13:41.491Z,18.65
2023-03-25T20:16:13.232Z,34.92
2023-03-25T20:18:41.618Z,23.83
2023-03-25T20:21:09.878Z,17.77
2023-03-25T20:23:38.563Z,25.13
2023-03-25T20:26:06.300Z,23.88
2023-03-25T20:28:33.833Z,23.42
2023-03-25T20:31:21.371Z,26.63
2023-03-25T20:33:50.374Z,28.00
2023-03-25T20:36:19.237Z,25.02
2023-03-25T20:38:56.659Z,11.27
2023-03-25T20:41:26.356Z,23.98
2023-03-25T20:43:54.415Z,15.98
2023-03-25T20:46:25.291Z,18.20
2023-03-25T20:48:53.215Z,31.58
2023-03-25T20:51:21.012Z,31.38
2023-03-25T20:53:48.614Z,28.40
2023-03-25T20:56:16.443Z,23.33
2023-03-25T20:58:44.102Z,23.52
2023-03-25T21:01:15.652Z,16.55
2023-03-25T21:03:43.189Z,21.80
2023-03-25T21:06:20.999Z,33.63
2023-03-25T21:08:51.367Z,24.73
2023-03-25T21:11:19.003Z,20.00
2023-03-25T21:13:46.574Z,29.58
2023-03-25T21:16:14.398Z,24.67
2023-03-25T21:18:42.732Z,21.77
2023-03-25T21:21:10.725Z,27.70
2023-03-25T21:23:42.969Z,20.00
2023-03-25T21:26:10.755Z,28.20
2023-03-25T21:28:38.760Z,29.45
2023-03-25T21:31:14.300Z,20.95
2023-03-25T21:33:41.782Z,32.80
2023-03-25T21:36:09.524Z,18.38
2023-03-25T21:38:37.348Z,24.40
2023-03-25T21:41:06.979Z,27.60
2023-03-25T21:43:35.918Z,28.17
2023-03-25T21:46:06.263Z,29.65
2023-03-25T21:48:38.121Z,27.63
2023-03-25T21:51:11.897Z,29.45
2023-03-25T21:53:46.274Z,39.50
2023-03-25T21:56:17.309Z,42.83
2023-03-25T21:58:45.630Z,34.50
2023-03-25T22:01:15.844Z,37.80
2023-03-25T22:03:46.808Z,38.47
2023-03-25T22:06:16.879Z,24.70
2023-03-25T22:08:44.969Z,34.97
2023-03-25T22:11:18.088Z,48.58
2023-03-25T22:13:46.452Z,40.33
2023-03-25T22:16:15.660Z,43.97
2023-03-25T22:18:44.030Z,48.65
2023-03-25T22:21:17.258Z,39.75
2023-03-25T22:23:46.862Z,31.30
2023-03-25T22:26:16.620Z,43.97
2023-03-25T22:28:44.544Z,33.78
2023-03-25T22:31:18.294Z,39.92
2023-03-25T22:33:46.653Z,42.00
2023-03-25T22:36:16.333Z,52.78
2023-03-25T22:38:47.812Z,48.65
2023-03-25T22:41:16.646Z,40.72
2023-03-25T22:43:46.968Z,45.08
2023-03-25T22:46:15.387Z,49.88
2023-03-25T22:48:42.905Z,53.28
2023-03-25T22:51:16.193Z,40.40
2023-03-25T22:53:44.003Z,44.53
2023-03-25T22:56:11.836Z,37.58
2023-03-25T22:58:40.092Z,45.20
2023-03-25T23:01:18.586Z,51.15
2023-03-25T23:03:46.155Z,57.85
2023-03-25T23:06:14.431Z,38.47
2023-03-25T23:08:42.896Z,45.60
2023-03-25T23:11:16.868Z,60.05
2023-03-25T23:13:48.409Z,48.63
2023-03-25T23:16:18.892Z,53.28
2023-03-25T23:18:54.784Z,37.47
2023-03-25T23:21:25.523Z,41.85
2023-03-25T23:23:54.983Z,64.22
2023-03-25T23:26:26.336Z,50.03
2023-03-25T23:28:57.042Z,56.50
2023-03-25T23:31:28.244Z,56.33
2023-03-25T23:33:58.707Z,60.63
2023-03-25T23:36:28.580Z,44.03
2023-03-25T23:38:55.979Z,47.85
2023-03-25T23:41:23.642Z,66.10
2023-03-25T23:43:52.657Z,50.65
2023-03-25T23:46:21.843Z,48.15
2023-03-25T23:48:49.925Z,58.80
2023-03-25T23:51:20.349Z,46.72
2023-03-25T23:53:49.835Z,54.15
2023-03-25T23:56:19.512Z,62.58
2023-03-25T23:58:46.833Z,55.22
